Time;durP1;ratioP1;P1;durP2;ratioP2;P2;SDS_P1;SDS_P2;PMS_P1;PMS_P2;Temp;Humidity;BMP_temperature;BMP_pressure;BME280_temperature;BME280_humidity;BME280_pressure;Samples;Min_cycle;Max_cycle;Signal;HPM_P1;HPM_P2
2022/06/20 00:01:17;;;;;;;6.30;3.72;;;;;;;18.04;62.55;100003.97;5066650;28;20501;-81
2022/06/20 00:03:49;;;;;;;6.22;3.10;;;;;;;18.02;62.51;100006.34;5071692;28;20059;-80
2022/06/20 00:06:19;;;;;;;5.97;2.92;;;;;;;18.00;62.49;100003.09;5072380;28;20049;-81
2022/06/20 00:08:47;;;;;;;7.35;3.40;;;;;;;18.03;62.88;99999.50;5065681;28;21269;-80
2022/06/20 00:11:20;;;;;;;9.20;3.30;;;;;;;18.05;62.59;99997.13;5070501;28;20053;-81
2022/06/20 00:13:50;;;;;;;6.65;3.00;;;;;;;18.06;62.54;99984.69;5071656;28;20049;-81
2022/06/20 00:16:19;;;;;;;5.18;3.00;;;;;;;18.03;62.73;99977.75;5072150;28;20497;-80
2022/06/20 00:18:49;;;;;;;6.90;3.10;;;;;;;18.03;62.50;99965.69;5068989;28;20048;-81
2022/06/20 00:21:20;;;;;;;6.20;3.20;;;;;;;18.00;62.58;99969.28;5075255;28;20064;-81
2022/06/20 00:23:48;;;;;;;5.85;3.17;;;;;;;18.01;62.66;99970.88;5075656;28;20051;-80
2022/06/20 00:26:16;;;;;;;7.65;3.10;;;;;;;18.02;62.69;99964.06;5075530;28;20060;-81
2022/06/20 00:28:44;;;;;;;4.88;2.80;;;;;;;17.99;62.80;99957.16;5071872;28;20056;-80
2022/06/20 00:31:15;;;;;;;4.65;3.20;;;;;;;18.01;62.72;99948.34;5089731;28;20048;-81
2022/06/20 00:33:43;;;;;;;7.20;3.25;;;;;;;17.97;62.67;99947.47;5095501;28;20056;-81
2022/06/20 00:36:13;;;;;;;6.97;3.97;;;;;;;17.74;63.49;99934.19;5096027;28;20060;-81
2022/06/20 00:38:42;;;;;;;9.05;4.45;;;;;;;17.59;64.27;99929.50;5092789;28;20047;-80
2022/06/20 00:41:16;;;;;;;5.28;3.67;;;;;;;17.51;64.68;99931.34;5067953;28;20409;-81
2022/06/20 00:43:46;;;;;;;8.95;4.45;;;;;;;17.61;64.53;99924.31;5075043;28;20055;-81
2022/06/20 00:46:26;;;;;;;9.05;5.10;;;;;;;17.62;64.59;99926.75;5075232;28;20056;-80
2022/06/20 00:49:00;;;;;;;11.95;5.43;;;;;;;17.59;64.35;99909.78;5075511;28;20049;-80
2022/06/20 00:51:36;;;;;;;9.07;5.43;;;;;;;17.40;65.02;99874.06;5074587;28;20060;-81
2022/06/20 00:54:11;;;;;;;7.63;5.38;;;;;;;17.22;65.68;99846.41;5074746;28;20057;-80
2022/06/20 00:56:50;;;;;;;8.68;5.63;;;;;;;17.26;65.42;99843.66;5075055;28;20409;-81
2022/06/20 00:59:24;;;;;;;9.68;5.25;;;;;;;17.38;65.18;99837.03;5074565;28;20064;-81
2022/06/20 01:01:52;;;;;;;6.88;5.28;;;;;;;17.45;64.79;99866.13;5069154;28;20481;-81
2022/06/20 01:04:26;;;;;;;7.88;5.45;;;;;;;17.51;64.75;99893.94;5074597;28;20056;-81
2022/06/20 01:06:57;;;;;;;9.73;5.53;;;;;;;17.45;64.66;99893.47;5074546;28;20055;-80
2022/06/20 01:09:28;;;;;;;13.75;5.10;;;;;;;17.43;64.57;99890.22;5068435;28;20056;-80
2022/06/20 01:11:58;;;;;;;8.38;4.97;;;;;;;17.50;64.57;99887.50;5071078;28;20053;-81
2022/06/20 01:14:33;;;;;;;9.73;5.20;;;;;;;17.55;64.15;99904.06;5074131;28;20425;-80
2022/06/20 01:17:03;;;;;;;8.27;5.20;;;;;;;17.51;64.00;99930.56;5074184;28;20397;-80
2022/06/20 01:19:43;;;;;;;;;;;;;;;17.41;64.08;99935.63;5070552;28;20417;-80
2022/06/20 01:22:41;;;;;;;8.32;5.28;;;;;;;17.50;63.91;99934.56;5074678;28;19924;-80
2022/06/20 01:25:25;;;;;;;7.68;4.93;;;;;;;17.59;63.63;99940.75;5073942;28;20056;-81
2022/06/20 01:27:54;;;;;;;7.60;5.15;;;;;;;17.62;63.58;99952.09;5073306;28;20056;-79
2022/06/20 01:30:24;;;;;;;;;;;;;;;17.62;63.53;99956.91;5081224;28;20040;-81
2022/06/20 01:32:51;;;;;;;6.32;4.75;;;;;;;17.66;63.48;99949.34;5073441;28;20385;-81
2022/06/20 01:38:02;;;;;;;7.30;4.80;;;;;;;17.76;63.66;99993.78;5073452;28;20059;-81
2022/06/20 01:40:34;;;;;;;6.88;4.53;;;;;;;17.79;63.65;99997.88;5070531;28;20060;-80
2022/06/20 01:43:02;;;;;;;7.68;4.47;;;;;;;17.84;64.32;99998.38;5074062;28;20408;-81
2022/06/20 01:48:32;;;;;;;11.25;5.60;;;;;;;17.67;63.32;99998.84;4993551;28;20058;-81
2022/06/20 01:50:59;;;;;;;8.43;5.45;;;;;;;17.72;63.62;100045.59;5055289;28;20048;-81
2022/06/20 01:53:32;;;;;;;7.05;5.25;;;;;;;17.71;65.10;100094.69;5073887;28;20052;-81
2022/06/20 01:56:04;;;;;;;6.88;5.72;;;;;;;17.67;65.88;100128.41;5073321;28;20071;-80
2022/06/20 01:58:39;;;;;;;11.50;6.38;;;;;;;17.65;66.12;100136.41;5073714;28;20071;-81
2022/06/20 02:01:08;;;;;;;12.32;6.90;;;;;;;17.58;66.79;100128.63;5070828;28;20063;-80
2022/06/20 02:03:41;;;;;;;11.02;6.80;;;;;;;17.50;67.74;100165.47;5074150;28;20404;-81
2022/06/20 02:06:11;;;;;;;13.30;7.05;;;;;;;17.44;68.19;100182.63;5073894;28;20048;-81
2022/06/20 02:08:43;;;;;;;11.35;8.75;;;;;;;17.30;71.82;100185.13;5066704;28;20055;-80
2022/06/20 02:11:18;;;;;;;11.73;9.70;;;;;;;17.18;72.94;100188.09;5053456;28;20045;-81
2022/06/20 02:13:51;;;;;;;23.05;11.20;;;;;;;16.84;75.28;100190.50;5052394;28;20049;-80
2022/06/20 02:16:21;;;;;;;17.80;12.90;;;;;;;16.83;76.83;100172.78;5053728;28;20057;-80
2022/06/20 02:18:53;;;;;;;15.52;11.77;;;;;;;16.79;76.93;100160.59;5059369;28;20048;-80
2022/06/20 02:21:24;;;;;;;17.67;12.45;;;;;;;16.76;77.46;100152.91;5070608;28;20064;-80
2022/06/20 02:23:59;;;;;;;16.95;13.52;;;;;;;16.78;77.78;100135.66;5073081;28;20059;-80
2022/06/20 02:26:28;;;;;;;14.95;10.30;;;;;;;16.77;77.22;100119.94;5073458;28;20048;-80
2022/06/20 02:29:02;;;;;;;15.60;11.35;;;;;;;16.79;76.90;100103.53;5067798;28;20060;-80
2022/06/20 02:31:32;;;;;;;11.77;10.25;;;;;;;16.78;76.06;100077.41;5091278;28;20048;-80
2022/06/20 02:34:01;;;;;;;13.10;10.23;;;;;;;16.78;76.82;100068.97;5093965;28;20134;-80
2022/06/20 02:36:31;;;;;;;14.68;10.55;;;;;;;16.83;76.27;100059.47;5093258;28;20484;-80
2022/06/20 02:38:58;;;;;;;14.68;10.48;;;;;;;16.83;76.18;100051.81;5081733;28;20048;-80
2022/06/20 02:41:31;;;;;;;15.63;9.90;;;;;;;16.86;76.68;100030.56;5072907;28;20053;-80
2022/06/20 02:44:06;;;;;;;9.93;8.52;;;;;;;16.90;76.63;100008.97;5072726;28;20063;-81
2022/06/20 02:46:34;;;;;;;9.52;7.47;;;;;;;16.91;75.46;99984.47;5073023;28;20057;-80
2022/06/20 02:49:04;;;;;;;10.35;8.68;;;;;;;16.94;75.92;99964.03;5068580;28;20053;-79
2022/06/20 02:51:38;;;;;;;11.43;9.13;;;;;;;16.95;75.98;99943.97;5053101;28;20057;-80
2022/06/20 02:54:07;;;;;;;15.27;9.25;;;;;;;16.99;75.54;99908.28;5055914;28;20059;-80
2022/06/20 02:56:39;;;;;;;11.27;8.20;;;;;;;16.96;75.02;99894.94;5072804;28;20060;-80
2022/06/20 02:59:18;;;;;;;10.48;8.95;;;;;;;16.98;75.13;99877.72;5070455;28;20053;-76
2022/06/20 03:01:52;;;;;;;8.45;7.50;;;;;;;16.98;75.53;99864.44;5069375;28;20048;-80
2022/06/20 03:04:21;;;;;;;9.68;7.63;;;;;;;16.99;75.30;99845.59;5072774;28;20060;-80
2022/06/20 03:06:55;;;;;;;10.33;7.97;;;;;;;16.99;75.18;99829.50;5071418;28;20064;-80
2022/06/20 03:09:27;;;;;;;8.18;7.35;;;;;;;17.01;74.93;99832.78;5070926;28;20048;-80
2022/06/20 03:11:55;;;;;;;9.43;7.55;;;;;;;16.97;74.88;99820.63;5072928;28;20044;-80
2022/06/20 03:14:31;;;;;;;9.02;8.05;;;;;;;16.99;74.43;99817.47;5073079;28;20055;-80
2022/06/20 03:16:59;;;;;;;9.75;8.60;;;;;;;16.83;74.72;99783.81;5072508;28;20382;-78
2022/06/20 03:19:32;;;;;;;9.82;8.82;;;;;;;16.86;74.01;99768.97;5068510;28;20048;-80
2022/06/20 03:22:02;;;;;;;12.43;11.23;;;;;;;16.73;73.78;99773.94;5072424;28;20049;-80
2022/06/20 03:24:31;;;;;;;14.15;12.63;;;;;;;16.73;73.48;99775.94;5072264;28;20469;-80
2022/06/20 03:27:00;;;;;;;15.43;12.57;;;;;;;16.59;72.99;99780.13;5072608;28;20049;-80
2022/06/20 03:29:29;;;;;;;;;;;;;;;16.42;73.43;99775.78;5069997;28;20057;-81
2022/06/20 03:31:57;;;;;;;10.30;9.30;;;;;;;16.37;74.07;99770.44;5092705;28;19927;-80
2022/06/20 03:34:24;;;;;;;11.02;8.38;;;;;;;16.30;74.19;99766.69;5092395;28;20056;-81
2022/06/20 03:36:52;;;;;;;9.18;8.00;;;;;;;16.35;74.27;99766.38;5092398;28;20063;-80
2022/06/20 03:39:20;;;;;;;11.32;7.80;;;;;;;16.29;74.24;99777.09;5073496;28;20410;-81
2022/06/20 03:41:49;;;;;;;9.05;8.13;;;;;;;16.19;74.53;99775.72;5072302;28;20060;-81
2022/06/20 03:44:21;;;;;;;12.85;9.98;;;;;;;16.18;74.85;99782.50;5072160;28;20052;-80
2022/06/20 03:46:56;;;;;;;8.88;7.97;;;;;;;16.19;74.74;99783.31;5071986;28;20055;-81
2022/06/20 03:49:33;;;;;;;7.63;6.93;;;;;;;16.26;74.89;99793.91;5070247;28;20053;-80
2022/06/20 03:52:08;;;;;;;11.65;9.85;;;;;;;16.16;74.71;99793.28;5072448;28;20405;-81
2022/06/20 03:54:42;;;;;;;9.68;8.70;;;;;;;16.23;74.88;99796.28;5075032;28;20045;-81
2022/06/20 03:57:16;;;;;;;8.95;7.57;;;;;;;16.26;74.11;99808.75;5075826;28;20480;-81
2022/06/20 03:59:48;;;;;;;7.68;6.82;;;;;;;16.36;73.82;99810.19;5071961;28;20052;-81
2022/06/20 04:02:23;;;;;;;8.57;6.28;;;;;;;16.33;73.46;99799.66;5075637;28;20052;-78
2022/06/20 04:04:57;;;;;;;8.23;6.63;;;;;;;16.34;72.67;99812.53;5073999;28;20056;-81
2022/06/20 04:07:29;;;;;;;7.30;6.60;;;;;;;16.24;73.12;99809.13;5075936;28;20505;-81
2022/06/20 04:12:54;;;;;;;7.97;6.85;;;;;;;16.41;72.75;99819.09;5076513;28;20056;-80
2022/06/20 04:15:31;;;;;;;7.15;6.43;;;;;;;16.50;72.52;99830.13;5075691;28;20049;-80
2022/06/20 04:20:54;;;;;;;6.38;5.75;;;;;;;16.49;72.69;99853.81;5069998;28;20499;-81
2022/06/20 04:23:33;;;;;;;9.15;7.05;;;;;;;16.58;72.47;99868.44;5074756;28;20059;-81
2022/06/20 04:26:02;;;;;;;;;;;;;;;16.61;71.98;99862.09;5076383;28;20052;-80
2022/06/20 04:28:36;;;;;;;8.43;6.20;;;;;;;16.66;71.57;99882.69;5075603;28;19921;-81
2022/06/20 04:31:10;;;;;;;6.95;5.90;;;;;;;16.75;71.24;99897.31;5054806;28;20056;-79
2022/06/20 04:33:42;;;;;;;9.23;6.60;;;;;;;16.77;70.79;99921.06;5075410;28;20055;-82
2022/06/20 04:36:20;;;;;;;6.63;5.53;;;;;;;16.81;71.05;99936.06;5075366;28;20056;-81
2022/06/20 04:38:54;;;;;;;7.97;5.90;;;;;;;16.88;70.23;99945.81;5075564;28;20068;-81
2022/06/20 04:41:36;;;;;;;9.50;5.70;;;;;;;16.85;70.19;99944.56;5072771;28;20409;-81
2022/06/20 04:44:11;;;;;;;6.95;5.47;;;;;;;16.90;69.71;99941.44;5075453;28;20503;-81
2022/06/20 04:46:45;;;;;;;7.82;5.50;;;;;;;16.94;69.54;99944.34;5075227;28;20053;-81
2022/06/20 04:49:17;;;;;;;6.53;5.05;;;;;;;16.99;69.13;99960.94;5075868;28;20060;-81
2022/06/20 04:51:48;;;;;;;7.57;4.55;;;;;;;16.95;68.11;99972.13;5071387;28;20056;-81
2022/06/20 04:54:20;;;;;;;7.47;5.40;;;;;;;16.92;67.73;99983.28;5075380;28;20045;-81
2022/06/20 04:56:49;;;;;;;6.15;4.32;;;;;;;16.88;68.00;100000.09;5074876;28;20485;-81
2022/06/20 04:59:22;;;;;;;6.45;3.95;;;;;;;16.90;67.66;100020.22;5074368;28;20083;-81
2022/06/20 05:01:51;;;;;;;6.03;4.43;;;;;;;16.81;68.32;100039.31;5070026;28;21245;-81
2022/06/20 05:04:29;;;;;;;7.65;4.65;;;;;;;16.74;67.92;100075.69;5073685;28;20052;-80
2022/06/20 05:07:04;;;;;;;7.40;4.72;;;;;;;16.70;68.95;100088.84;5074986;28;20051;-81
2022/06/20 05:09:38;;;;;;;6.00;5.18;;;;;;;16.62;69.17;100099.09;5074481;28;20078;-81
2022/06/20 05:12:12;;;;;;;6.95;4.97;;;;;;;16.64;69.83;100106.00;5070979;28;20051;-81
2022/06/20 05:14:48;;;;;;;9.38;5.78;;;;;;;16.68;69.65;100113.72;5065030;28;20040;-81
2022/06/20 05:17:20;;;;;;;8.80;5.60;;;;;;;16.66;69.19;100118.88;5066194;28;20056;-80
2022/06/20 05:19:53;;;;;;;9.15;5.82;;;;;;;16.67;69.65;100123.31;5071990;28;20515;-81
2022/06/20 05:22:25;;;;;;;7.13;5.88;;;;;;;16.69;70.23;100121.78;5074084;28;20107;-81
2022/06/20 05:24:55;;;;;;;8.75;6.03;;;;;;;16.71;71.07;100107.34;5074322;28;20048;-81
2022/06/20 05:27:27;;;;;;;6.55;5.95;;;;;;;16.69;71.10;100098.47;5066488;28;20417;-81
2022/06/20 05:30:00;;;;;;;6.43;5.28;;;;;;;16.66;71.07;100087.97;5066864;28;20052;-81
2022/06/20 05:32:37;;;;;;;7.05;5.78;;;;;;;16.68;71.27;100091.22;5058099;28;20055;-81
2022/06/20 05:35:09;;;;;;;9.48;6.57;;;;;;;16.74;71.66;100076.50;5066714;28;20048;-81
2022/06/20 05:37:42;;;;;;;8.73;5.80;;;;;;;16.78;71.56;100080.22;5068387;28;20477;-81
2022/06/20 05:40:17;;;;;;;8.90;5.20;;;;;;;16.77;71.16;100077.75;5077463;28;20822;-79
2022/06/20 05:42:44;;;;;;;6.85;5.20;;;;;;;16.81;69.97;100065.44;5063490;28;20049;-78
2022/06/20 05:45:17;;;;;;;7.10;5.18;;;;;;;16.86;70.82;100072.78;5064464;28;20060;-80
2022/06/20 05:47:50;;;;;;;7.65;5.22;;;;;;;16.80;71.23;100074.25;5063666;28;20055;-79
2022/06/20 05:50:32;;;;;;;8.70;5.28;;;;;;;16.83;70.49;100073.53;5071323;28;20049;-79
2022/06/20 05:53:02;;;;;;;7.32;4.57;;;;;;;16.81;70.25;100073.06;5066456;28;20044;-80
2022/06/20 05:55:34;;;;;;;7.15;4.53;;;;;;;16.79;70.68;100075.41;5059374;28;20053;-80
2022/06/20 05:58:03;;;;;;;6.78;5.20;;;;;;;16.76;71.35;100079.78;5072273;28;20071;-82
2022/06/20 06:00:33;;;;;;;5.97;4.28;;;;;;;16.77;70.43;100074.94;5061096;28;20052;-78
2022/06/20 06:03:04;;;;;;;5.65;4.95;;;;;;;16.73;70.68;100079.69;5067451;28;20053;-82
2022/06/20 06:05:38;;;;;;;6.35;4.25;;;;;;;16.68;71.02;100079.97;5073886;28;20044;-83
2022/06/20 06:08:15;;;;;;;8.15;4.88;;;;;;;16.68;71.28;100063.09;5072905;28;20459;-81
2022/06/20 06:10:46;;;;;;;6.13;4.72;;;;;;;16.72;71.07;100064.81;5067149;28;20483;-81
2022/06/20 06:13:23;;;;;;;6.50;4.90;;;;;;;16.67;70.29;100072.69;5066573;28;20519;-81
2022/06/20 06:18:50;;;;;;;7.25;5.00;;;;;;;16.79;70.71;100059.34;5073973;28;20079;-81
2022/06/20 06:21:19;;;;;;;8.63;5.00;;;;;;;16.86;70.07;100047.44;5068802;28;20061;-80
2022/06/20 06:23:47;;;;;;;6.72;5.20;;;;;;;16.88;69.79;100050.72;5066809;28;20041;-86
2022/06/20 06:26:17;;;;;;;10.18;5.57;;;;;;;16.95;69.25;100050.91;5070429;28;20052;-85
2022/06/20 06:28:46;;;;;;;7.97;5.82;;;;;;;16.97;69.02;100061.78;5071222;28;20064;-82
2022/06/20 06:31:19;;;;;;;8.27;5.97;;;;;;;16.99;68.87;100068.66;5086087;28;20052;-86
2022/06/20 06:33:51;;;;;;;8.48;5.82;;;;;;;17.04;69.37;100070.38;5065687;28;20052;-85
2022/06/20 06:36:25;;;;;;;12.23;6.72;;;;;;;17.01;69.29;100065.50;5053940;28;20055;-85
2022/06/20 06:38:57;;;;;;;8.85;7.00;;;;;;;17.08;69.25;100062.03;5066220;28;20047;-83
2022/06/20 06:41:29;;;;;;;9.35;7.13;;;;;;;16.98;69.83;100052.16;5073468;28;20175;-80
2022/06/20 06:43:59;;;;;;;16.33;8.10;;;;;;;17.01;69.79;100057.06;5054770;28;20049;-78
2022/06/20 06:46:33;;;;;;;11.15;8.68;;;;;;;16.96;69.21;100060.94;5060099;28;20059;-75
2022/06/20 06:49:15;;;;;;;10.52;8.48;;;;;;;16.94;69.10;100056.88;5063576;28;20413;-79
2022/06/20 06:51:51;;;;;;;9.77;8.13;;;;;;;16.92;69.54;100070.50;5067351;28;20067;-79
2022/06/20 06:54:23;;;;;;;12.85;8.07;;;;;;;16.87;69.21;100065.97;5060720;28;20048;-80
2022/06/20 06:57:03;;;;;;;12.73;8.75;;;;;;;16.92;69.35;100068.50;5066223;28;20048;-80
2022/06/20 06:59:38;;;;;;;9.55;7.70;;;;;;;17.00;69.29;100064.66;5066579;28;20060;-80
2022/06/20 07:02:14;;;;;;;14.38;9.15;;;;;;;17.07;68.49;100074.44;5063202;28;20420;-80
2022/06/20 07:04:48;;;;;;;10.32;8.13;;;;;;;17.14;68.57;100091.50;5063989;28;20045;-81
2022/06/20 07:07:21;;;;;;;13.32;9.15;;;;;;;17.20;67.97;100106.91;5064286;28;20087;-82
2022/06/20 07:09:50;;;;;;;12.13;9.20;;;;;;;17.23;67.55;100106.97;5066927;28;20049;-80
2022/06/20 07:12:24;;;;;;;15.07;9.63;;;;;;;17.25;67.48;100100.97;5063774;28;20413;-80
2022/06/20 07:14:59;;;;;;;10.82;8.73;;;;;;;17.32;66.98;100103.94;5064657;28;20048;-80
2022/06/20 07:17:32;;;;;;;13.57;9.88;;;;;;;17.40;67.23;100107.72;5061188;28;20512;-80
2022/06/20 07:20:02;;;;;;;15.23;8.93;;;;;;;17.44;66.16;100109.44;5063007;28;20048;-80
2022/06/20 07:22:31;;;;;;;13.73;9.60;;;;;;;17.41;66.38;100109.38;5060604;28;20052;-80
2022/06/20 07:24:59;;;;;;;12.30;9.32;;;;;;;17.44;65.38;100112.25;5057147;28;20045;-78
2022/06/20 07:27:35;;;;;;;12.05;9.02;;;;;;;17.56;65.84;100107.69;5061308;28;20052;-80
2022/06/20 07:30:08;;;;;;;13.35;9.07;;;;;;;17.60;64.83;100108.56;5066102;28;20049;-80
2022/06/20 07:32:40;;;;;;;14.25;9.02;;;;;;;17.66;64.64;100112.72;5065704;28;20063;-80
2022/06/20 07:35:12;;;;;;;14.45;9.30;;;;;;;17.79;65.13;100125.44;5059924;28;20757;-78
2022/06/20 07:37:47;;;;;;;11.30;8.85;;;;;;;17.97;64.85;100119.38;5062200;28;20049;-81
2022/06/20 07:40:20;;;;;;;12.15;9.05;;;;;;;18.16;64.80;100118.50;5063915;28;20044;-76
2022/06/20 07:42:54;;;;;;;12.93;9.20;;;;;;;18.33;64.32;100111.56;5062792;28;20064;-77
2022/06/20 07:45:26;;;;;;;11.60;8.85;;;;;;;18.44;63.33;100109.75;5058231;28;20056;-76
2022/06/20 07:47:55;;;;;;;14.23;9.02;;;;;;;18.55;62.67;100113.56;5059128;28;20385;-78
2022/06/20 07:50:25;;;;;;;;;;;;;;;18.65;62.77;100107.28;5063655;28;20063;-77
2022/06/20 07:52:59;;;;;;;11.65;7.32;;;;;;;18.85;62.25;100115.66;5066164;28;19931;-77
2022/06/20 07:55:31;;;;;;;13.38;8.77;;;;;;;18.99;61.38;100107.44;5060279;28;20057;-79
2022/06/20 07:58:05;;;;;;;9.95;7.03;;;;;;;19.14;59.87;100111.25;5056484;28;20072;-78
2022/06/20 08:00:38;;;;;;;10.82;7.95;;;;;;;19.47;58.90;100104.84;5064217;28;20060;-76
2022/06/20 08:03:14;;;;;;;11.88;7.10;;;;;;;19.71;59.31;100108.41;5065452;28;20060;-78
2022/06/20 08:05:45;;;;;;;10.75;7.28;;;;;;;19.90;59.08;100110.22;5058971;28;20067;-76
2022/06/20 08:08:18;;;;;;;10.55;6.93;;;;;;;20.06;58.83;100098.69;5065075;28;20060;-77
2022/06/20 08:10:50;;;;;;;10.50;7.57;;;;;;;20.09;58.43;100109.22;5065865;28;20067;-79
2022/06/20 08:13:22;;;;;;;8.95;6.65;;;;;;;20.16;57.70;100108.47;5063935;28;20115;-81
2022/06/20 08:15:55;;;;;;;9.50;6.78;;;;;;;20.23;57.26;100117.84;5059622;28;20048;-78
2022/06/20 08:18:24;;;;;;;10.63;6.72;;;;;;;20.30;56.92;100114.28;5063346;28;20051;-75
2022/06/20 08:20:56;;;;;;;10.73;6.17;;;;;;;20.30;57.60;100113.47;5066978;28;20053;-79
2022/06/20 08:23:31;;;;;;;11.20;6.10;;;;;;;20.32;57.54;100116.72;5062668;28;20052;-77
2022/06/20 08:26:03;;;;;;;10.30;4.45;;;;;;;21.40;54.70;100118.34;5059529;28;20072;-79
2022/06/20 08:28:37;;;;;;;7.53;4.22;;;;;;;23.36;49.30;100108.47;5062775;28;20048;-79
2022/06/20 08:31:14;;;;;;;7.65;4.25;;;;;;;24.61;47.24;100112.69;5066530;28;20421;-79
2022/06/20 08:33:47;;;;;;;6.72;3.78;;;;;;;25.52;45.18;100125.63;5062235;28;20059;-80
2022/06/20 08:36:20;;;;;;;7.80;4.28;;;;;;;26.20;41.63;100120.28;5060942;28;20063;-83
2022/06/20 08:38:56;;;;;;;7.18;4.82;;;;;;;26.79;40.73;100124.69;5062147;28;20505;-78
2022/06/20 08:41:48;;;;;;;7.13;4.00;;;;;;;27.11;38.84;100124.91;5069289;28;20052;-77
2022/06/20 08:44:39;;;;;;;9.30;5.28;;;;;;;28.00;38.54;100129.31;5067936;28;20052;-83
2022/06/20 08:47:46;;;;;;;11.32;6.88;;;;;;;28.76;35.96;100136.97;5061545;28;20429;-84
2022/06/20 08:50:57;;;;;;;10.73;6.22;;;;;;;28.79;34.92;100138.91;5070191;28;20405;-84
2022/06/20 08:54:03;;;;;;;7.28;4.25;;;;;;;28.92;33.66;100142.69;5047143;28;20055;-80
2022/06/20 08:56:45;;;;;;;5.22;2.45;;;;;;;28.00;34.86;100163.69;5030456;28;20068;-81
2022/06/20 08:59:25;;;;;;;4.97;2.42;;;;;;;27.33;34.89;100144.56;5068769;28;20064;-81
2022/06/20 09:02:05;;;;;;;6.47;3.13;;;;;;;27.14;36.20;100166.13;5070908;28;20059;-79
2022/06/20 09:04:58;;;;;;;4.25;2.47;;;;;;;28.77;32.47;100153.72;5064120;28;20056;-83
2022/06/20 09:07:48;;;;;;;4.35;2.22;;;;;;;29.55;31.30;100153.69;5061129;28;20049;-78
2022/06/20 09:10:38;;;;;;;5.00;2.35;;;;;;;30.27;29.68;100151.59;5068607;28;20713;-83
2022/06/20 09:13:31;;;;;;;5.50;2.00;;;;;;;30.40;29.09;100156.56;5055798;28;20057;-83
2022/06/20 09:16:11;;;;;;;3.75;1.63;;;;;;;31.08;29.04;100157.19;5066259;28;20491;-84
2022/06/20 09:18:52;;;;;;;3.60;1.70;;;;;;;32.61;27.43;100152.69;5065104;28;20059;-86
2022/06/20 09:21:30;;;;;;;5.13;2.13;;;;;;;31.50;27.84;100154.13;5070208;28;20068;-82
2022/06/20 09:24:14;;;;;;;4.60;1.75;;;;;;;30.04;28.43;100157.66;5068838;28;20452;-80
2022/06/20 09:26:50;;;;;;;5.70;1.90;;;;;;;29.18;30.95;100168.69;5066932;28;20520;-79
2022/06/20 09:29:38;;;;;;;6.40;2.50;;;;;;;28.04;32.64;100167.28;5065347;28;20060;-81
2022/06/20 09:32:34;;;;;;;8.10;2.65;;;;;;;27.16;35.07;100174.28;5067944;28;20056;-81
2022/06/20 09:35:38;;;;;;;5.38;2.53;;;;;;;26.42;35.27;100177.91;5065613;28;20045;-85
2022/06/20 09:38:39;;;;;;;5.80;2.50;;;;;;;25.83;37.14;100184.75;5066741;28;20056;-81
2022/06/20 09:41:16;;;;;;;5.32;2.30;;;;;;;25.48;37.50;100179.06;5062007;28;20057;-85
2022/06/20 09:43:56;;;;;;;6.13;2.53;;;;;;;25.80;37.75;100182.78;5063648;28;20052;-80
2022/06/20 09:46:31;;;;;;;3.72;1.67;;;;;;;25.61;37.81;100181.38;5064809;28;20127;-78
2022/06/20 09:49:12;;;;;;;5.53;1.83;;;;;;;25.56;37.37;100182.66;5064616;28;20056;-79
2022/06/20 09:51:49;;;;;;;5.85;2.40;;;;;;;25.61;36.81;100178.50;5064290;28;20049;-80
2022/06/20 09:54:25;;;;;;;6.72;2.03;;;;;;;25.58;37.71;100185.06;5060131;28;20075;-80
2022/06/20 09:57:05;;;;;;;4.65;1.90;;;;;;;25.36;37.89;100193.03;5067811;28;20053;-78
2022/06/20 09:59:41;;;;;;;3.90;1.73;;;;;;;25.11;37.98;100186.34;5062767;28;20052;-80
2022/06/20 10:02:19;;;;;;;4.07;1.63;;;;;;;24.74;39.79;100191.91;5067565;28;20063;-80
2022/06/20 10:04:53;;;;;;;5.00;1.95;;;;;;;24.92;38.76;100182.03;5066265;28;20657;-81
2022/06/20 10:07:30;;;;;;;4.72;1.98;;;;;;;26.93;36.32;100184.44;5064122;28;20049;-76
2022/06/20 10:10:06;;;;;;;4.57;2.10;;;;;;;29.52;32.41;100186.19;5067878;28;20079;-81
2022/06/20 10:12:43;;;;;;;4.07;1.75;;;;;;;30.60;31.01;100187.97;5064117;28;20425;-81
2022/06/20 10:15:17;;;;;;;4.72;2.00;;;;;;;30.61;29.30;100187.50;5064844;28;20052;-79
2022/06/20 10:17:55;;;;;;;5.15;2.00;;;;;;;30.61;29.14;100184.63;5061477;28;20048;-84
2022/06/20 10:20:30;;;;;;;6.07;2.03;;;;;;;30.23;29.12;100181.69;5056463;28;20052;-79
2022/06/20 10:23:10;;;;;;;3.30;1.75;;;;;;;29.89;29.81;100192.53;5060003;28;20056;-81
2022/06/20 10:26:10;;;;;;;3.42;1.40;;;;;;;30.27;27.38;100188.13;5058288;28;20048;-81
2022/06/20 10:28:46;;;;;;;3.25;1.60;;;;;;;32.84;25.51;100194.59;5055710;28;20413;-80
2022/06/20 10:31:26;;;;;;;3.85;1.77;;;;;;;34.57;22.28;100184.81;5066335;28;20424;-80
2022/06/20 10:34:05;;;;;;;3.35;1.40;;;;;;;35.52;21.20;100194.09;5065228;28;20060;-79
2022/06/20 10:36:45;;;;;;;3.25;1.40;;;;;;;35.56;20.54;100192.59;5064226;28;20053;-80
2022/06/20 10:39:24;;;;;;;2.72;1.20;;;;;;;34.18;21.50;100196.19;5067160;28;20075;-80
2022/06/20 10:41:58;;;;;;;;;;;;;;;33.09;23.17;100199.34;5062630;28;20055;-80
2022/06/20 10:44:36;;;;;;;2.55;1.08;;;;;;;32.35;23.60;100207.66;5064837;28;19924;-80
2022/06/20 10:47:08;;;;;;;3.45;1.30;;;;;;;31.38;24.24;100213.28;5066866;28;20048;-79
2022/06/20 10:50:00;;;;;;;3.10;1.30;;;;;;;30.27;25.69;100199.63;5068286;28;20428;-79
2022/06/20 10:52:52;;;;;;;2.88;1.55;;;;;;;30.00;26.53;100203.72;5062244;28;20052;-79
2022/06/20 10:55:40;;;;;;;3.20;1.30;;;;;;;30.10;26.75;100213.28;5064929;28;20063;-80
2022/06/20 10:58:19;;;;;;;3.63;1.25;;;;;;;29.57;26.96;100209.81;5064956;28;20523;-79
2022/06/20 11:00:52;;;;;;;3.45;1.30;;;;;;;29.71;26.46;100216.03;5065283;28;20052;-79
2022/06/20 11:03:45;;;;;;;2.72;1.55;;;;;;;31.20;24.23;100221.75;5066246;28;20055;-80
2022/06/20 11:06:26;;;;;;;4.22;1.70;;;;;;;33.80;22.67;100223.50;5065408;28;20444;-80
2022/06/20 11:09:00;;;;;;;2.72;1.15;;;;;;;33.40;21.86;100224.44;5065105;28;20048;-81
2022/06/20 11:11:39;;;;;;;2.88;1.23;;;;;;;33.03;22.59;100223.50;5061684;28;20064;-81
2022/06/20 11:14:17;;;;;;;2.78;1.10;;;;;;;33.29;21.75;100224.91;5067635;28;20150;-80
2022/06/20 11:16:54;;;;;;;3.05;1.30;;;;;;;32.87;22.51;100239.03;5064358;28;20052;-80
2022/06/20 11:19:36;;;;;;;2.90;1.27;;;;;;;32.36;22.10;100243.09;5060403;28;20519;-81
2022/06/20 11:22:21;;;;;;;3.67;1.20;;;;;;;32.27;22.88;100235.16;5063254;28;20120;-80
2022/06/20 11:24:56;;;;;;;3.45;1.65;;;;;;;33.57;21.79;100228.59;5060709;28;20504;-80
2022/06/20 11:27:41;;;;;;;3.85;1.77;;;;;;;35.31;21.63;100216.31;5064475;28;20067;-78
2022/06/20 11:30:16;;;;;;;2.78;1.30;;;;;;;35.61;19.50;100220.09;5064408;28;20052;-80
2022/06/20 11:32:59;;;;;;;3.67;1.50;;;;;;;34.20;20.77;100216.75;5062183;28;20625;-80
2022/06/20 11:35:39;;;;;;;3.40;1.27;;;;;;;33.83;20.88;100225.44;5063227;28;20059;-79
2022/06/20 11:38:23;;;;;;;3.22;1.20;;;;;;;32.91;21.90;100216.59;5066611;28;20067;-79
2022/06/20 11:41:00;;;;;;;3.13;1.20;;;;;;;32.10;21.90;100222.25;5061545;28;20424;-79
2022/06/20 11:43:57;;;;;;;3.35;1.33;;;;;;;30.90;23.61;100213.28;5059833;28;20068;-75
2022/06/20 11:46:52;;;;;;;3.97;1.98;;;;;;;31.08;24.06;100218.44;5063265;28;20056;-77
2022/06/20 11:49:36;;;;;;;3.30;1.23;;;;;;;30.44;24.76;100214.75;5061539;28;20056;-77
2022/06/20 11:52:11;;;;;;;4.15;1.67;;;;;;;29.95;25.49;100224.38;5063148;28;20053;-80
2022/06/20 11:54:45;;;;;;;3.08;1.52;;;;;;;29.79;25.28;100221.56;5063986;28;20674;-81
2022/06/20 11:57:22;;;;;;;3.45;1.52;;;;;;;29.30;25.99;100223.25;5065542;28;20082;-80
2022/06/20 11:59:59;;;;;;;5.55;1.73;;;;;;;30.35;25.68;100216.22;5062332;28;20091;-80
2022/06/20 12:02:42;;;;;;;4.07;1.42;;;;;;;31.78;24.75;100218.47;5057421;28;20083;-79
2022/06/20 12:05:51;;;;;;;3.05;1.40;;;;;;;33.57;21.58;100204.72;5063008;28;20493;-80
2022/06/20 12:08:33;;;;;;;4.25;1.40;;;;;;;34.11;20.68;100208.88;4982518;28;20054;-81
2022/06/20 12:11:16;;;;;;;3.25;1.70;;;;;;;34.85;21.00;100205.75;4979553;28;20761;-81
2022/06/20 12:14:02;;;;;;;3.30;1.70;;;;;;;35.90;18.61;100209.91;5040462;28;20397;-80
2022/06/20 12:16:45;;;;;;;3.10;1.88;;;;;;;36.70;18.02;100205.00;5066591;28;20044;-79
2022/06/20 12:25:22;;;;;;;2.85;1.40;;;;;;;35.27;18.13;100204.09;5036514;28;20052;-80